createdAt,value
2019-02-07T00:00:10.181Z,8.21
2019-02-07T00:01:10.214Z,8.18
2019-02-07T00:02:10.098Z,8.14
2019-02-07T00:03:10.102Z,8.17
2019-02-07T00:04:10.104Z,8.18
2019-02-07T00:05:10.105Z,8.17
2019-02-07T00:06:10.110Z,8.14
2019-02-07T00:07:10.159Z,8.09
2019-02-07T00:08:10.116Z,8.13
2019-02-07T00:09:10.123Z,8.17
2019-02-07T00:10:10.166Z,8.22
2019-02-07T00:11:10.130Z,8.13
2019-02-07T00:12:10.142Z,8.13
2019-02-07T00:13:10.138Z,8.13
2019-02-07T00:14:10.140Z,8.14
2019-02-07T00:15:10.484Z,8.14
2019-02-07T00:16:10.155Z,8.21
2019-02-07T00:17:10.159Z,8.18
2019-02-07T00:18:10.160Z,8.13
2019-02-07T00:19:10.162Z,8.21
2019-02-07T00:20:10.164Z,8.24
2019-02-07T00:21:10.171Z,8.21
2019-02-07T00:22:10.179Z,8.20
2019-02-07T00:23:10.175Z,8.21
2019-02-07T00:24:10.179Z,8.22
2019-02-07T00:25:10.187Z,8.18
2019-02-07T00:26:10.180Z,8.22
2019-02-07T00:27:10.195Z,8.24
2019-02-07T00:28:10.194Z,8.21
2019-02-07T00:29:10.193Z,8.21
2019-02-07T00:30:10.207Z,8.21
2019-02-07T00:31:10.205Z,8.24
2019-02-07T00:32:10.219Z,8.21
2019-02-07T00:33:10.256Z,8.22
2019-02-07T00:34:10.224Z,8.21
2019-02-07T00:35:10.232Z,8.24
2019-02-07T00:36:10.228Z,8.25
2019-02-07T00:37:10.228Z,8.29
2019-02-07T00:38:10.238Z,8.18
2019-02-07T00:39:10.240Z,8.31
2019-02-07T00:40:10.242Z,8.24
2019-02-07T00:41:10.246Z,8.20
2019-02-07T00:42:10.239Z,8.21
2019-02-07T00:43:10.252Z,8.24
2019-02-07T00:44:10.261Z,8.25
2019-02-07T00:45:10.256Z,8.18
2019-02-07T00:46:10.265Z,8.31
2019-02-07T00:47:10.273Z,8.28
2019-02-07T00:48:10.264Z,8.25
2019-02-07T00:49:10.279Z,8.27
2019-02-07T00:50:10.290Z,8.29
2019-02-07T00:51:10.287Z,8.27
2019-02-07T00:52:10.308Z,8.29
2019-02-07T00:53:10.294Z,8.27
2019-02-07T00:54:10.285Z,8.28
2019-02-07T00:55:10.299Z,8.28
2019-02-07T00:56:10.304Z,8.28
2019-02-07T00:57:10.312Z,8.20
2019-02-07T00:58:10.314Z,8.22
2019-02-07T00:59:10.317Z,8.27
2019-02-07T01:00:10.318Z,8.24
2019-02-07T01:01:10.324Z,8.22
2019-02-07T01:02:10.330Z,8.13
2019-02-07T01:03:10.340Z,8.24
2019-02-07T01:04:10.336Z,8.20
2019-02-07T01:05:10.331Z,8.27
2019-02-07T01:06:10.341Z,8.28
2019-02-07T01:07:10.349Z,8.25
2019-02-07T01:08:10.350Z,8.25
2019-02-07T01:09:10.350Z,8.24
2019-02-07T01:10:10.366Z,8.25
2019-02-07T01:11:10.366Z,8.13
2019-02-07T01:12:10.376Z,8.17
2019-02-07T01:13:10.369Z,8.20
2019-02-07T01:14:10.373Z,8.17
2019-02-07T01:15:10.374Z,8.24
2019-02-07T01:16:10.389Z,8.22
2019-02-07T01:17:10.375Z,8.21
2019-02-07T01:18:10.386Z,8.13
2019-02-07T01:19:10.393Z,8.14
2019-02-07T01:20:10.407Z,8.13
2019-02-07T01:21:10.399Z,8.22
2019-02-07T01:22:10.407Z,8.20
2019-02-07T01:23:10.407Z,8.18
2019-02-07T01:24:10.433Z,8.21
2019-02-07T01:25:10.415Z,8.20
2019-02-07T01:26:10.422Z,8.22
2019-02-07T01:27:10.419Z,8.21
2019-02-07T01:28:10.433Z,8.20
2019-02-07T01:29:10.435Z,8.24
2019-02-07T01:30:10.439Z,8.21
2019-02-07T01:31:10.440Z,8.21
2019-02-07T01:32:10.447Z,8.24
2019-02-07T01:33:10.450Z,8.14
2019-02-07T01:34:10.450Z,8.17
2019-02-07T01:35:10.452Z,8.24
2019-02-07T01:36:10.459Z,8.18
2019-02-07T01:37:10.459Z,8.22
2019-02-07T01:38:10.465Z,8.24
2019-02-07T01:39:10.471Z,8.12
2019-02-07T01:40:10.475Z,8.24
2019-02-07T01:41:10.480Z,8.21
2019-02-07T01:42:10.481Z,8.24
2019-02-07T01:43:10.484Z,8.14
2019-02-07T01:44:10.485Z,8.22
2019-02-07T01:45:12.957Z,8.18
2019-02-07T01:46:10.497Z,8.21
2019-02-07T01:47:10.500Z,8.14
2019-02-07T01:48:10.503Z,8.14
2019-02-07T01:49:10.510Z,8.14
2019-02-07T01:50:10.510Z,8.18
2019-02-07T01:51:10.519Z,8.17
2019-02-07T01:52:10.521Z,8.14
2019-02-07T01:53:10.521Z,8.13
2019-02-07T01:54:10.527Z,8.22
2019-02-07T01:55:10.523Z,8.14
2019-02-07T01:56:10.529Z,8.12
2019-02-07T01:57:10.542Z,8.12
2019-02-07T01:58:10.544Z,8.03
2019-02-07T01:59:10.545Z,8.17
2019-02-07T02:00:10.553Z,8.06
2019-02-07T02:01:10.545Z,8.02
2019-02-07T02:02:10.558Z,8.06
2019-02-07T02:03:10.562Z,8.03
2019-02-07T02:04:10.585Z,8.06
2019-02-07T02:05:10.578Z,7.88
2019-02-07T02:06:10.575Z,7.94
2019-02-07T02:07:10.586Z,7.85
2019-02-07T02:08:10.585Z,7.91
2019-02-07T02:09:10.580Z,7.89
2019-02-07T02:10:10.599Z,7.92
2019-02-07T02:11:10.603Z,7.86
2019-02-07T02:12:10.595Z,7.84
2019-02-07T02:13:10.599Z,7.85
2019-02-07T02:14:10.603Z,7.76
2019-02-07T02:15:10.607Z,7.74
2019-02-07T02:16:10.610Z,7.74
2019-02-07T02:17:10.611Z,7.67
2019-02-07T02:18:10.615Z,7.60
2019-02-07T02:19:10.617Z,7.62
2019-02-07T02:20:10.709Z,7.55
2019-02-07T02:21:10.629Z,7.50
2019-02-07T02:22:10.626Z,7.47
2019-02-07T02:23:10.629Z,7.52
2019-02-07T02:24:10.638Z,7.42
2019-02-07T02:25:10.637Z,7.48
2019-02-07T02:26:10.645Z,7.39
2019-02-07T02:27:10.649Z,7.32
2019-02-07T02:28:10.645Z,7.34
2019-02-07T02:29:10.653Z,7.34
2019-02-07T02:30:10.657Z,7.39
2019-02-07T02:31:10.660Z,7.30
2019-02-07T02:32:10.672Z,7.36
2019-02-07T02:33:10.664Z,7.32
2019-02-07T02:34:10.670Z,7.24
2019-02-07T02:35:10.670Z,7.21
2019-02-07T02:36:10.677Z,7.24
2019-02-07T02:37:10.680Z,7.16
2019-02-07T02:38:10.684Z,7.18
2019-02-07T02:39:10.690Z,7.11
2019-02-07T02:40:10.696Z,7.12
2019-02-07T02:41:10.694Z,7.11
2019-02-07T02:42:10.689Z,7.08
2019-02-07T02:43:10.696Z,7.15
2019-02-07T02:44:10.703Z,7.08
2019-02-07T02:45:10.704Z,7.09
2019-02-07T02:46:10.713Z,7.08
2019-02-07T02:47:10.711Z,6.99
2019-02-07T02:48:10.713Z,6.93
2019-02-07T02:49:10.709Z,6.99
2019-02-07T02:50:10.722Z,6.94
2019-02-07T02:51:10.720Z,6.87
2019-02-07T02:52:10.735Z,6.90
2019-02-07T02:53:10.728Z,6.89
2019-02-07T02:54:10.734Z,6.90
2019-02-07T02:55:10.732Z,6.89
2019-02-07T02:56:10.732Z,6.86
2019-02-07T02:57:10.762Z,6.79
2019-02-07T02:58:10.742Z,6.86
2019-02-07T02:59:10.755Z,6.79
2019-02-07T03:00:10.754Z,6.81
2019-02-07T03:01:10.758Z,6.75
2019-02-07T03:02:10.750Z,6.82
2019-02-07T03:03:10.759Z,6.75
2019-02-07T03:04:10.766Z,6.79
2019-02-07T03:05:10.767Z,6.79
2019-02-07T03:06:10.776Z,6.75
2019-02-07T03:07:10.763Z,6.86
2019-02-07T03:08:10.771Z,6.78
2019-02-07T03:09:10.773Z,6.81
2019-02-07T03:10:10.779Z,6.73
2019-02-07T03:11:10.778Z,6.73
2019-02-07T03:12:10.847Z,6.76
2019-02-07T03:13:10.788Z,6.79
2019-02-07T03:14:10.791Z,6.75
2019-02-07T03:15:10.791Z,6.72
2019-02-07T03:16:10.801Z,6.78
2019-02-07T03:17:10.792Z,6.69
2019-02-07T03:18:10.815Z,6.75
2019-02-07T03:19:10.800Z,6.69
2019-02-07T03:20:10.950Z,6.71
2019-02-07T03:21:10.808Z,6.76
2019-02-07T03:22:10.813Z,6.73
2019-02-07T03:23:10.815Z,6.71
2019-02-07T03:24:10.811Z,6.73
2019-02-07T03:25:10.816Z,6.69
2019-02-07T03:26:10.827Z,6.71
2019-02-07T03:27:10.821Z,6.71
2019-02-07T03:28:10.831Z,6.69
2019-02-07T03:29:10.830Z,6.69
2019-02-07T03:30:10.837Z,6.60
2019-02-07T03:31:10.839Z,6.69
2019-02-07T03:32:10.842Z,6.65
2019-02-07T03:33:10.839Z,6.69
2019-02-07T03:34:10.846Z,6.63
2019-02-07T03:35:10.840Z,6.69
2019-02-07T03:36:10.856Z,6.71
2019-02-07T03:37:10.860Z,6.64
2019-02-07T03:38:10.852Z,6.72
2019-02-07T03:39:10.858Z,6.71
2019-02-07T03:40:10.859Z,6.75
2019-02-07T03:41:10.863Z,6.72
2019-02-07T03:42:10.865Z,6.73
2019-02-07T03:43:10.869Z,6.75
2019-02-07T03:44:10.882Z,6.71
2019-02-07T03:45:10.869Z,6.68
2019-02-07T03:46:10.872Z,6.65
2019-02-07T03:47:10.880Z,6.73
2019-02-07T03:48:10.884Z,6.78
2019-02-07T03:49:10.884Z,6.73
2019-02-07T03:50:10.904Z,6.75
2019-02-07T03:51:10.892Z,6.73
2019-02-07T03:52:10.891Z,6.72
2019-02-07T03:53:10.905Z,6.75
2019-02-07T03:54:10.903Z,6.71
2019-02-07T03:55:10.899Z,6.76
2019-02-07T03:56:10.905Z,6.73
2019-02-07T03:57:10.903Z,6.83
2019-02-07T03:58:10.906Z,6.76
2019-02-07T03:59:10.923Z,6.73
2019-02-07T04:00:10.915Z,6.76
2019-02-07T04:01:10.921Z,6.82
2019-02-07T04:02:10.921Z,6.81
2019-02-07T04:03:10.926Z,6.78
2019-02-07T04:04:10.924Z,6.79
2019-02-07T04:05:10.937Z,6.82
2019-02-07T04:06:10.930Z,6.89
2019-02-07T04:07:10.933Z,6.93
2019-02-07T04:08:10.935Z,6.90
2019-02-07T04:09:10.939Z,6.89
2019-02-07T04:10:10.944Z,6.89
2019-02-07T04:11:11.070Z,6.89
2019-02-07T04:12:10.949Z,6.87
2019-02-07T04:13:10.947Z,6.73
2019-02-07T04:14:10.951Z,6.87
2019-02-07T04:15:10.962Z,6.82
2019-02-07T04:16:15.190Z,6.87
2019-02-07T04:17:10.959Z,6.83
2019-02-07T04:18:11.064Z,6.79
2019-02-07T04:19:10.965Z,6.86
2019-02-07T04:20:10.967Z,6.90
2019-02-07T04:21:10.973Z,6.86
2019-02-07T04:22:10.972Z,6.89
2019-02-07T04:23:10.987Z,6.87
2019-02-07T04:24:11.001Z,6.87
2019-02-07T04:25:10.985Z,6.86
2019-02-07T04:26:10.988Z,6.93
2019-02-07T04:27:10.995Z,6.91
2019-02-07T04:28:10.993Z,6.97
2019-02-07T04:29:11.001Z,6.94
2019-02-07T04:30:10.999Z,6.87
2019-02-07T04:31:10.999Z,6.91
2019-02-07T04:32:11.006Z,6.93
2019-02-07T04:33:11.007Z,6.97
2019-02-07T04:34:11.015Z,6.93
2019-02-07T04:35:11.020Z,6.89
2019-02-07T04:36:11.018Z,6.93
2019-02-07T04:37:11.018Z,6.96
2019-02-07T04:38:11.022Z,6.97
2019-02-07T04:39:11.026Z,6.97
2019-02-07T04:40:12.325Z,6.90
2019-02-07T04:41:11.027Z,6.97
2019-02-07T04:42:11.032Z,6.94
2019-02-07T04:43:11.034Z,6.96
2019-02-07T04:44:11.055Z,7.00
2019-02-07T04:45:11.041Z,6.96
2019-02-07T04:46:11.054Z,6.97
2019-02-07T04:47:11.050Z,7.00
2019-02-07T04:48:11.154Z,7.08
2019-02-07T04:49:11.053Z,7.05
2019-02-07T04:50:11.064Z,7.08
2019-02-07T04:51:11.057Z,7.11
2019-02-07T04:52:11.066Z,7.05
2019-02-07T04:53:11.067Z,7.07
2019-02-07T04:54:11.071Z,7.09
2019-02-07T04:55:11.074Z,7.07
2019-02-07T04:56:11.080Z,7.09
2019-02-07T04:57:11.084Z,7.08
2019-02-07T04:58:11.082Z,7.07
2019-02-07T04:59:11.087Z,7.01
2019-02-07T05:00:11.115Z,7.12
2019-02-07T05:01:11.089Z,7.12
2019-02-07T05:02:11.100Z,7.08
2019-02-07T05:03:11.097Z,7.09
2019-02-07T05:04:11.096Z,7.09
2019-02-07T05:05:11.099Z,7.11
2019-02-07T05:06:11.108Z,7.14
2019-02-07T05:07:11.110Z,7.14
2019-02-07T05:08:11.114Z,7.07
2019-02-07T05:09:11.124Z,7.15
2019-02-07T05:10:11.123Z,7.21
2019-02-07T05:11:11.126Z,7.15
2019-02-07T05:12:11.127Z,7.24
2019-02-07T05:13:11.131Z,7.12
2019-02-07T05:14:11.130Z,7.29
2019-02-07T05:15:11.145Z,7.19
2019-02-07T05:16:11.138Z,7.26
2019-02-07T05:17:11.143Z,7.21
2019-02-07T05:18:11.138Z,7.24
2019-02-07T05:19:11.139Z,7.18
2019-02-07T05:20:11.154Z,7.27
2019-02-07T05:21:11.166Z,7.21
2019-02-07T05:22:11.155Z,7.23
2019-02-07T05:23:11.159Z,7.29
2019-02-07T05:24:11.159Z,7.26
2019-02-07T05:25:11.163Z,7.32
2019-02-07T05:26:11.166Z,7.39
2019-02-07T05:27:11.165Z,7.27
2019-02-07T05:28:11.177Z,7.32
2019-02-07T05:29:11.175Z,7.36
2019-02-07T05:30:11.180Z,7.41
2019-02-07T05:31:11.181Z,7.34
2019-02-07T05:32:11.189Z,7.37
2019-02-07T05:33:11.188Z,7.30
2019-02-07T05:34:11.198Z,7.34
2019-02-07T05:35:11.198Z,7.32
2019-02-07T05:36:11.198Z,7.39
2019-02-07T05:37:11.203Z,7.41
2019-02-07T05:38:11.202Z,7.34
2019-02-07T05:39:11.206Z,7.33
2019-02-07T05:40:11.210Z,7.36
2019-02-07T05:41:11.215Z,7.45
2019-02-07T05:42:11.213Z,7.42
2019-02-07T05:43:11.216Z,7.42
2019-02-07T05:44:11.222Z,7.37
2019-02-07T05:45:11.225Z,7.45
2019-02-07T05:46:11.227Z,7.44
2019-02-07T05:47:11.224Z,7.50
2019-02-07T05:48:11.235Z,7.41
2019-02-07T05:49:11.245Z,7.52
2019-02-07T05:50:11.243Z,7.44
2019-02-07T05:51:11.245Z,7.48
2019-02-07T05:52:11.253Z,7.50
2019-02-07T05:53:11.254Z,7.51
2019-02-07T05:54:11.288Z,7.50
2019-02-07T05:55:11.256Z,7.54
2019-02-07T05:56:11.260Z,7.47
2019-02-07T05:57:11.265Z,7.50
2019-02-07T05:58:11.265Z,7.55
2019-02-07T05:59:11.277Z,7.54
2019-02-07T06:00:11.271Z,7.57
2019-02-07T06:01:11.280Z,7.54
2019-02-07T06:02:11.278Z,7.58
2019-02-07T06:03:11.278Z,7.54
2019-02-07T06:04:11.285Z,7.55
2019-02-07T06:05:11.290Z,7.55
2019-02-07T06:06:11.290Z,7.60
2019-02-07T06:07:11.295Z,7.58
2019-02-07T06:08:11.303Z,7.60
2019-02-07T06:09:11.301Z,7.69
2019-02-07T06:10:11.307Z,7.62
2019-02-07T06:11:11.314Z,7.66
2019-02-07T06:12:11.309Z,7.62
2019-02-07T06:13:11.311Z,7.62
2019-02-07T06:14:11.320Z,7.69
2019-02-07T06:15:11.320Z,7.66
2019-02-07T06:16:11.319Z,7.66
2019-02-07T06:17:11.328Z,7.71
2019-02-07T06:18:11.331Z,7.63
2019-02-07T06:19:11.336Z,7.70
2019-02-07T06:20:11.345Z,7.67
2019-02-07T06:21:11.339Z,7.74
2019-02-07T06:22:11.347Z,7.70
2019-02-07T06:23:11.351Z,7.77
2019-02-07T06:24:11.348Z,7.73
2019-02-07T06:25:11.381Z,7.71
2019-02-07T06:26:11.360Z,7.71
2019-02-07T06:27:11.358Z,7.82
2019-02-07T06:28:11.367Z,7.67
2019-02-07T06:29:11.369Z,7.70
2019-02-07T06:30:11.368Z,7.69
2019-02-07T06:31:11.375Z,7.67
2019-02-07T06:32:11.371Z,7.77
2019-02-07T06:33:11.376Z,7.77
2019-02-07T06:34:11.386Z,7.76
2019-02-07T06:35:11.397Z,7.70
2019-02-07T06:36:11.389Z,7.71
2019-02-07T06:37:11.393Z,7.71
2019-02-07T06:38:11.401Z,7.71
2019-02-07T06:39:11.401Z,7.77
2019-02-07T06:40:11.424Z,7.77
2019-02-07T06:41:11.415Z,7.73
2019-02-07T06:42:11.416Z,7.74
2019-02-07T06:43:11.414Z,7.74
2019-02-07T06:44:11.436Z,7.81
2019-02-07T06:45:11.419Z,7.74
2019-02-07T06:46:11.428Z,7.79
2019-02-07T06:47:13.368Z,7.76
2019-02-07T06:48:11.429Z,7.76
2019-02-07T06:49:11.437Z,7.77
2019-02-07T06:50:11.432Z,7.82
2019-02-07T06:51:11.447Z,7.76
2019-02-07T06:52:11.451Z,7.84
2019-02-07T06:53:11.453Z,7.77
2019-02-07T06:54:11.450Z,7.76
2019-02-07T06:55:11.465Z,7.74
2019-02-07T06:56:11.460Z,7.84
2019-02-07T06:57:11.460Z,7.82
2019-02-07T06:58:11.467Z,7.85
2019-02-07T06:59:11.499Z,7.89
2019-02-07T07:00:11.472Z,7.85
2019-02-07T07:01:11.489Z,7.89
2019-02-07T07:02:11.486Z,7.82
2019-02-07T07:03:11.485Z,7.86
2019-02-07T07:04:11.490Z,7.89
2019-02-07T07:05:11.496Z,7.85
2019-02-07T07:06:11.492Z,7.86
2019-02-07T07:07:11.496Z,7.89
2019-02-07T07:08:11.514Z,7.74
2019-02-07T07:09:11.508Z,7.85
2019-02-07T07:10:11.505Z,7.74
2019-02-07T07:11:11.511Z,7.85
2019-02-07T07:12:11.524Z,7.82
2019-02-07T07:13:11.525Z,7.88
2019-02-07T07:14:11.522Z,7.89
2019-02-07T07:15:11.526Z,7.84
2019-02-07T07:16:11.531Z,7.88
2019-02-07T07:17:11.535Z,7.86
2019-02-07T07:18:11.536Z,7.85
2019-02-07T07:19:11.537Z,7.79
2019-02-07T07:20:11.543Z,7.85
2019-02-07T07:21:11.557Z,7.85
2019-02-07T07:22:11.550Z,7.86
2019-02-07T07:23:11.568Z,7.88
2019-02-07T07:24:11.559Z,7.89
2019-02-07T07:25:11.562Z,7.89
2019-02-07T07:26:11.576Z,7.84
2019-02-07T07:27:11.569Z,7.91
2019-02-07T07:28:11.574Z,7.91
2019-02-07T07:29:11.574Z,7.89
2019-02-07T07:30:11.584Z,7.91
2019-02-07T07:31:11.585Z,7.88
2019-02-07T07:32:11.584Z,7.92
2019-02-07T07:33:11.583Z,7.86
2019-02-07T07:34:11.591Z,7.89
2019-02-07T07:35:11.600Z,7.84
2019-02-07T07:36:11.600Z,7.89
2019-02-07T07:37:11.600Z,7.86
2019-02-07T07:38:11.606Z,7.89
2019-02-07T07:39:11.607Z,7.89
2019-02-07T07:40:11.619Z,8.00
2019-02-07T07:41:11.626Z,7.92
2019-02-07T07:42:11.620Z,7.96
2019-02-07T07:43:11.628Z,7.96
2019-02-07T07:44:11.626Z,7.95
2019-02-07T07:45:11.630Z,7.85
2019-02-07T07:46:11.634Z,7.88
2019-02-07T07:47:11.640Z,7.95
2019-02-07T07:48:11.642Z,7.84
2019-02-07T07:49:11.641Z,7.89
2019-02-07T07:50:11.646Z,7.86
2019-02-07T07:51:11.658Z,8.00
2019-02-07T07:52:11.655Z,7.89
2019-02-07T07:53:11.655Z,7.94
2019-02-07T07:54:11.664Z,8.04
2019-02-07T07:55:11.672Z,8.07
2019-02-07T07:56:11.670Z,8.06
2019-02-07T07:57:11.674Z,8.09
2019-02-07T07:58:11.674Z,8.06
2019-02-07T07:59:11.679Z,8.06
2019-02-07T08:00:11.677Z,8.06
2019-02-07T08:01:11.685Z,8.02
2019-02-07T08:02:11.695Z,8.10
2019-02-07T08:03:11.693Z,8.02
2019-02-07T08:04:11.701Z,8.06
2019-02-07T08:05:11.698Z,8.04
2019-02-07T08:06:11.704Z,8.06
2019-02-07T08:07:11.707Z,8.02
2019-02-07T08:08:11.717Z,8.07
2019-02-07T08:09:11.704Z,8.07
2019-02-07T08:10:11.708Z,8.09
2019-02-07T08:11:11.734Z,8.17
2019-02-07T08:12:11.730Z,8.17
2019-02-07T08:13:11.732Z,8.17
2019-02-07T08:14:11.742Z,8.03
2019-02-07T08:15:11.740Z,8.04
2019-02-07T08:16:11.740Z,7.91
2019-02-07T08:17:11.748Z,7.96
2019-02-07T08:18:11.743Z,8.00
2019-02-07T08:19:11.754Z,7.86
2019-02-07T08:20:11.752Z,7.91
2019-02-07T08:21:11.761Z,7.92
2019-02-07T08:22:11.763Z,7.88
2019-02-07T08:23:11.771Z,7.96
2019-02-07T08:24:11.780Z,7.88
2019-02-07T08:25:11.764Z,7.88
2019-02-07T08:26:11.771Z,8.04
2019-02-07T08:27:11.771Z,8.10
2019-02-07T08:28:11.797Z,8.07
2019-02-07T08:29:11.778Z,8.20
2019-02-07T08:30:11.781Z,8.14
2019-02-07T08:31:11.783Z,8.14
2019-02-07T08:32:11.793Z,8.14
2019-02-07T08:33:11.794Z,8.18
2019-02-07T08:34:11.796Z,8.22
2019-02-07T08:35:11.800Z,8.24
2019-02-07T08:36:11.867Z,8.28
2019-02-07T08:37:11.814Z,8.24
2019-02-07T08:38:11.818Z,8.21
2019-02-07T08:39:11.813Z,8.18
2019-02-07T08:40:11.820Z,8.12
2019-02-07T08:41:11.814Z,8.12
2019-02-07T08:42:11.828Z,8.14
2019-02-07T08:43:11.831Z,8.17
2019-02-07T08:44:14.019Z,8.25
2019-02-07T08:45:11.850Z,8.22
2019-02-07T08:46:11.844Z,8.22
2019-02-07T08:47:11.907Z,8.22
2019-02-07T08:48:11.869Z,8.21
2019-02-07T08:49:11.852Z,8.24
2019-02-07T08:50:11.856Z,8.22
2019-02-07T08:51:11.863Z,8.10
2019-02-07T08:52:11.864Z,8.17
2019-02-07T08:53:11.891Z,8.14
2019-02-07T08:54:11.888Z,8.20
2019-02-07T08:55:11.872Z,8.10
2019-02-07T08:56:11.875Z,8.12
2019-02-07T08:57:11.881Z,8.17
2019-02-07T08:58:11.890Z,8.14
2019-02-07T08:59:11.892Z,8.10
2019-02-07T09:00:11.896Z,8.21
2019-02-07T09:01:11.904Z,8.18
2019-02-07T09:02:11.907Z,8.17
2019-02-07T09:03:11.896Z,8.24
2019-02-07T09:04:11.916Z,8.25
2019-02-07T09:05:11.923Z,8.22
2019-02-07T09:06:11.915Z,8.25
2019-02-07T09:07:11.935Z,8.25
2019-02-07T09:08:11.936Z,8.18
2019-02-07T09:09:11.927Z,8.27
2019-02-07T09:10:11.945Z,8.21
2019-02-07T09:11:11.937Z,8.36
2019-02-07T09:12:11.953Z,8.29
2019-02-07T09:13:11.948Z,8.25
2019-02-07T09:14:11.946Z,8.36
2019-02-07T09:15:11.944Z,8.31
2019-02-07T09:16:11.962Z,8.37
2019-02-07T09:17:14.435Z,8.47
2019-02-07T09:18:13.371Z,8.40
2019-02-07T09:19:11.963Z,8.45
2019-02-07T09:20:11.983Z,8.40
2019-02-07T09:21:11.978Z,8.36
2019-02-07T09:22:11.976Z,8.40
2019-02-07T09:23:11.984Z,8.37
2019-02-07T09:24:11.990Z,8.36
2019-02-07T09:25:11.998Z,8.40
2019-02-07T09:26:11.997Z,8.42
2019-02-07T09:27:11.999Z,8.49
2019-02-07T09:28:12.016Z,8.42
2019-02-07T09:29:12.010Z,8.45
2019-02-07T09:30:12.012Z,8.42
2019-02-07T09:31:12.020Z,8.55
2019-02-07T09:32:12.016Z,8.42
2019-02-07T09:33:12.032Z,8.57
2019-02-07T09:34:12.031Z,8.54
2019-02-07T09:35:12.034Z,8.58
2019-02-07T09:36:12.035Z,8.57
2019-02-07T09:37:12.038Z,8.60
2019-02-07T09:38:12.042Z,8.60
2019-02-07T09:39:12.049Z,8.73
2019-02-07T09:40:12.055Z,8.76
2019-02-07T09:41:12.070Z,8.75
2019-02-07T09:42:12.057Z,8.82
2019-02-07T09:43:12.068Z,8.83
2019-02-07T09:44:12.073Z,8.80
2019-02-07T09:45:12.080Z,8.73
2019-02-07T09:46:12.078Z,8.80
2019-02-07T09:47:12.080Z,8.93
2019-02-07T09:48:21.302Z,8.91
2019-02-07T09:49:12.093Z,9.03
2019-02-07T09:50:12.106Z,9.00
2019-02-07T09:51:12.102Z,9.03
2019-02-07T09:52:12.116Z,9.00
2019-02-07T09:53:12.108Z,9.04
2019-02-07T09:54:12.115Z,9.06
2019-02-07T09:55:12.139Z,9.08
2019-02-07T09:56:12.127Z,9.03
2019-02-07T09:57:12.211Z,9.08
2019-02-07T09:58:12.160Z,9.06
2019-02-07T09:59:12.138Z,9.13
2019-02-07T10:00:12.141Z,9.19
2019-02-07T10:01:12.161Z,9.16
2019-02-07T10:02:12.168Z,9.27
2019-02-07T10:03:12.157Z,9.23
2019-02-07T10:04:12.157Z,9.24
2019-02-07T10:05:12.167Z,9.27
2019-02-07T10:06:12.171Z,9.34
2019-02-07T10:07:12.177Z,9.32
2019-02-07T10:08:12.204Z,9.32
2019-02-07T10:09:12.186Z,9.35
2019-02-07T10:10:12.216Z,9.44
2019-02-07T10:11:12.204Z,9.52
2019-02-07T10:12:12.205Z,9.42
2019-02-07T10:13:12.237Z,9.53
2019-02-07T10:14:12.243Z,9.63
2019-02-07T10:15:14.290Z,9.70
2019-02-07T10:16:12.225Z,9.71
2019-02-07T10:17:12.433Z,9.74
2019-02-07T10:18:12.263Z,9.85
2019-02-07T10:19:12.317Z,9.95
2019-02-07T10:20:12.318Z,10.06
2019-02-07T10:21:12.395Z,9.88
2019-02-07T10:22:12.402Z,9.83
2019-02-07T10:23:12.279Z,9.85
2019-02-07T10:24:12.279Z,9.85
2019-02-07T10:25:12.287Z,9.88
2019-02-07T10:26:12.302Z,9.85
2019-02-07T10:27:12.298Z,10.02
2019-02-07T10:28:12.302Z,10.25
2019-02-07T10:29:12.321Z,10.68
2019-02-07T10:30:12.334Z,10.39
2019-02-07T10:31:13.445Z,10.76
2019-02-07T10:32:12.331Z,11.11
2019-02-07T10:33:12.340Z,11.20
2019-02-07T10:34:12.347Z,11.11
2019-02-07T10:35:22.416Z,10.76
2019-02-07T10:36:12.367Z,10.43
2019-02-07T10:37:12.372Z,10.25
2019-02-07T10:38:12.405Z,10.10
2019-02-07T10:39:12.398Z,10.11
2019-02-07T10:40:12.399Z,10.01
2019-02-07T10:41:12.407Z,9.95
2019-02-07T10:42:12.415Z,10.10
2019-02-07T10:43:12.428Z,10.24
2019-02-07T10:44:12.438Z,10.32
2019-02-07T10:45:12.448Z,10.47
2019-02-07T10:46:12.482Z,10.60
2019-02-07T10:47:12.553Z,10.42
2019-02-07T10:48:12.464Z,10.42
2019-02-07T10:49:12.474Z,10.42
2019-02-07T10:50:12.485Z,10.68
2019-02-07T10:51:12.490Z,11.45
2019-02-07T10:52:12.493Z,11.13
2019-02-07T10:53:12.531Z,11.01
2019-02-07T10:54:12.508Z,10.93
2019-02-07T10:55:12.521Z,10.84
2019-02-07T10:56:12.522Z,10.75
2019-02-07T10:57:12.532Z,10.70
2019-02-07T10:58:12.542Z,11.30
2019-02-07T10:59:12.550Z,11.69
2019-02-07T11:00:12.558Z,12.07
2019-02-07T11:01:12.565Z,12.51
2019-02-07T11:02:12.583Z,12.62
2019-02-07T11:03:12.585Z,12.85
2019-02-07T11:04:12.595Z,12.54
2019-02-07T11:05:12.618Z,13.04
2019-02-07T11:06:12.618Z,12.49
2019-02-07T11:07:12.632Z,11.94
2019-02-07T11:08:12.639Z,11.60
2019-02-07T11:09:12.654Z,12.11
2019-02-07T11:10:12.689Z,11.75
2019-02-07T11:11:12.676Z,12.16
2019-02-07T11:12:12.686Z,11.63
2019-02-07T11:13:12.705Z,12.25
2019-02-07T11:14:12.708Z,11.90
2019-02-07T11:15:12.722Z,11.30
2019-02-07T11:16:12.732Z,11.01
2019-02-07T11:17:12.743Z,11.12
2019-02-07T11:18:12.756Z,11.63
2019-02-07T11:19:20.859Z,12.40
2019-02-07T11:20:12.777Z,11.74
2019-02-07T11:21:12.795Z,11.67
2019-02-07T11:22:12.798Z,12.59
2019-02-07T11:23:12.806Z,12.67
2019-02-07T11:24:12.821Z,12.92
2019-02-07T11:25:12.828Z,12.69
2019-02-07T11:26:12.848Z,12.29
2019-02-07T11:27:12.851Z,11.98
2019-02-07T11:28:12.865Z,12.66
2019-02-07T11:29:12.873Z,12.98
2019-02-07T11:30:12.895Z,12.66
2019-02-07T11:31:12.905Z,12.33
2019-02-07T11:32:12.907Z,12.22
2019-02-07T11:33:12.920Z,12.16
2019-02-07T11:34:12.931Z,11.66
2019-02-07T11:35:12.940Z,11.81
2019-02-07T11:36:12.955Z,11.56
2019-02-07T11:37:12.968Z,11.67
2019-02-07T11:38:12.974Z,11.75
2019-02-07T11:39:12.989Z,11.78
2019-02-07T11:40:13.098Z,11.84
2019-02-07T11:41:13.003Z,11.84
2019-02-07T11:42:13.064Z,12.03
2019-02-07T11:43:13.017Z,12.18
2019-02-07T11:44:13.040Z,11.98
2019-02-07T11:45:13.048Z,12.05
2019-02-07T11:46:13.053Z,12.16
2019-02-07T11:47:13.067Z,12.16
2019-02-07T11:48:13.083Z,12.29
2019-02-07T11:49:13.093Z,12.12
2019-02-07T11:50:13.099Z,11.78
2019-02-07T11:51:13.098Z,11.67
2019-02-07T11:52:13.115Z,11.82
2019-02-07T11:53:13.129Z,11.98
2019-02-07T11:54:13.135Z,12.00
2019-02-07T11:55:13.149Z,12.15
2019-02-07T11:56:13.158Z,12.31
2019-02-07T11:57:13.163Z,12.29
2019-02-07T11:58:13.178Z,11.90
2019-02-07T11:59:13.181Z,11.57
2019-02-07T12:00:13.198Z,11.44
2019-02-07T12:01:13.216Z,11.33
2019-02-07T12:02:13.226Z,11.44
2019-02-07T12:03:13.225Z,11.56
2019-02-07T12:04:13.237Z,11.62
2019-02-07T12:05:13.249Z,11.63
2019-02-07T12:06:13.261Z,11.87
2019-02-07T12:07:13.262Z,12.22
2019-02-07T12:08:13.277Z,12.46
2019-02-07T12:09:13.277Z,12.44
2019-02-07T12:10:13.301Z,12.15
2019-02-07T12:11:13.311Z,11.79
2019-02-07T12:12:13.317Z,11.62
2019-02-07T12:13:13.322Z,11.78
2019-02-07T12:14:13.333Z,11.87
2019-02-07T12:15:13.334Z,12.15
2019-02-07T12:16:13.351Z,12.54
2019-02-07T12:17:13.370Z,12.37
2019-02-07T12:18:13.367Z,12.26
2019-02-07T12:19:18.169Z,12.30
2019-02-07T12:20:13.388Z,12.66
2019-02-07T12:21:13.396Z,12.70
2019-02-07T12:22:13.410Z,11.79
2019-02-07T12:23:13.418Z,12.05
2019-02-07T12:24:13.433Z,12.56
2019-02-07T12:25:13.448Z,12.46
2019-02-07T12:26:13.455Z,12.01
2019-02-07T12:27:13.459Z,11.97
2019-02-07T12:28:13.475Z,12.54
2019-02-07T12:29:13.489Z,12.01
2019-02-07T12:30:13.494Z,11.96
2019-02-07T12:31:13.504Z,12.21
2019-02-07T12:32:13.533Z,12.04
2019-02-07T12:33:13.526Z,11.69
2019-02-07T12:34:13.536Z,11.63
2019-02-07T12:35:13.543Z,11.77
2019-02-07T12:36:13.562Z,12.12
2019-02-07T12:37:13.563Z,12.01
2019-02-07T12:38:13.573Z,11.84
2019-02-07T12:39:13.596Z,12.03
2019-02-07T12:40:13.595Z,12.03
2019-02-07T12:41:13.603Z,12.16
2019-02-07T12:42:13.615Z,11.79
2019-02-07T12:43:13.628Z,11.62
2019-02-07T12:44:13.636Z,11.85
2019-02-07T12:45:13.648Z,12.05
2019-02-07T12:46:13.664Z,12.22
2019-02-07T12:47:13.670Z,12.04
2019-02-07T12:48:13.673Z,12.04
2019-02-07T12:49:13.682Z,11.88
2019-02-07T12:50:13.696Z,11.66
2019-02-07T12:51:13.707Z,11.74
2019-02-07T12:52:13.715Z,11.67
2019-02-07T12:53:13.728Z,11.94
2019-02-07T12:54:13.736Z,12.05
2019-02-07T12:55:13.759Z,12.49
2019-02-07T12:56:13.757Z,11.78
2019-02-07T12:57:13.760Z,11.79
2019-02-07T12:58:13.768Z,11.78
2019-02-07T12:59:13.780Z,12.44
2019-02-07T13:00:13.790Z,12.12
2019-02-07T13:01:13.808Z,11.84
2019-02-07T13:02:13.807Z,11.67
2019-02-07T13:03:13.875Z,12.00
2019-02-07T13:04:13.828Z,11.79
2019-02-07T13:05:13.846Z,12.12
2019-02-07T13:06:13.850Z,12.04
2019-02-07T13:07:13.862Z,11.82
2019-02-07T13:08:13.876Z,11.62
2019-02-07T13:09:13.871Z,11.62
2019-02-07T13:10:13.893Z,11.44
2019-02-07T13:11:13.981Z,11.20
2019-02-07T13:12:13.908Z,11.16